createdAt,value
2023-04-01T00:01:30.066Z,11.31
2023-04-01T00:03:58.951Z,11.31
2023-04-01T00:06:27.993Z,11.29
2023-04-01T00:08:56.857Z,11.25
2023-04-01T00:11:27.608Z,11.20
2023-04-01T00:13:56.620Z,11.16
2023-04-01T00:16:25.756Z,11.18
2023-04-01T00:18:55.923Z,11.15
2023-04-01T00:21:25.009Z,11.10
2023-04-01T00:23:53.889Z,11.04
2023-04-01T00:26:23.472Z,11.08
2023-04-01T00:28:52.950Z,11.05
2023-04-01T00:31:22.269Z,11.08
2023-04-01T00:33:51.673Z,11.06
2023-04-01T00:36:24.421Z,11.04
2023-04-01T00:38:53.729Z,11.01
2023-04-01T00:41:22.939Z,10.96
2023-04-01T00:43:53.844Z,10.93
2023-04-01T00:46:23.021Z,10.88
2023-04-01T00:48:57.219Z,10.89
2023-04-01T00:51:32.534Z,10.88
2023-04-01T00:54:04.778Z,10.87
2023-04-01T00:56:40.676Z,10.90
2023-04-01T00:59:16.405Z,10.87
2023-04-01T01:01:45.533Z,10.86
2023-04-01T01:04:26.665Z,10.88
2023-04-01T01:07:14.316Z,10.89
2023-04-01T01:09:55.433Z,10.88
2023-04-01T01:12:31.083Z,10.88
2023-04-01T01:15:13.018Z,10.94
2023-04-01T01:17:55.610Z,10.96
2023-04-01T01:20:59.075Z,10.94
2023-04-01T01:24:24.847Z,10.96
2023-04-01T01:27:05.697Z,11.01
2023-04-01T01:30:11.509Z,10.94
2023-04-01T01:33:31.471Z,10.96
2023-04-01T01:36:07.107Z,10.96
2023-04-01T01:38:38.638Z,10.96
2023-04-01T01:41:12.145Z,10.95
2023-04-01T01:43:46.730Z,11.00
2023-04-01T01:46:22.674Z,11.00
2023-04-01T01:48:54.044Z,11.01
2023-04-01T01:51:25.856Z,11.04
2023-04-01T01:53:54.850Z,11.01
2023-04-01T01:56:31.364Z,11.03
2023-04-01T01:59:05.804Z,11.07
2023-04-01T02:01:41.847Z,11.08
2023-04-01T02:04:17.997Z,11.07
2023-04-01T02:06:58.174Z,11.07
2023-04-01T02:09:27.248Z,11.10
2023-04-01T02:12:01.900Z,11.04
2023-04-01T02:14:43.819Z,11.03
2023-04-01T02:17:18.109Z,11.04
2023-04-01T02:19:55.832Z,10.99
2023-04-01T02:22:33.659Z,11.00
2023-04-01T02:25:08.201Z,10.97
2023-04-01T02:27:38.237Z,10.94
2023-04-01T02:30:09.379Z,10.96
2023-04-01T02:32:41.307Z,10.89
2023-04-01T02:35:13.736Z,10.85
2023-04-01T02:37:46.266Z,10.81
2023-04-01T02:40:17.913Z,10.80
2023-04-01T02:42:48.061Z,10.78
2023-04-01T02:45:17.192Z,10.78
2023-04-01T02:47:46.249Z,10.81
2023-04-01T02:50:15.330Z,10.78
2023-04-01T02:52:45.986Z,10.79
2023-04-01T02:55:15.540Z,10.80
2023-04-01T02:57:44.584Z,10.79
2023-04-01T03:00:15.564Z,10.75
2023-04-01T03:02:45.358Z,10.75
2023-04-01T03:05:14.272Z,10.74
2023-04-01T03:07:43.372Z,10.75
2023-04-01T03:10:13.806Z,10.74
2023-04-01T03:12:43.236Z,10.73
2023-04-01T03:15:15.217Z,10.72
2023-04-01T03:17:45.558Z,10.66
2023-04-01T03:20:15.994Z,10.66
2023-04-01T03:22:45.169Z,10.66
2023-04-01T03:25:15.618Z,10.67
2023-04-01T03:27:44.638Z,10.68
2023-04-01T03:30:13.863Z,10.68
2023-04-01T03:32:51.647Z,10.70
2023-04-01T03:35:21.352Z,10.69
2023-04-01T03:37:50.546Z,10.72
2023-04-01T03:40:21.309Z,10.77
2023-04-01T03:42:51.021Z,10.79
2023-04-01T03:45:20.176Z,10.77
2023-04-01T03:47:49.259Z,10.76
2023-04-01T03:50:18.449Z,10.77
2023-04-01T03:52:47.500Z,10.78
2023-04-01T03:55:16.600Z,10.80
2023-04-01T03:57:47.368Z,10.80
2023-04-01T04:00:21.237Z,10.79
2023-04-01T04:02:56.825Z,10.78
2023-04-01T04:05:32.353Z,10.73
2023-04-01T04:08:01.617Z,10.73
2023-04-01T04:10:30.971Z,10.72
2023-04-01T04:13:01.397Z,10.73
2023-04-01T04:15:33.079Z,10.70
2023-04-01T04:18:02.392Z,10.72
2023-04-01T04:20:31.380Z,10.77
2023-04-01T04:23:02.134Z,10.75
2023-04-01T04:25:31.128Z,10.76
2023-04-01T04:28:01.811Z,10.79
2023-04-01T04:30:30.882Z,10.80
2023-04-01T04:33:00.082Z,10.83
2023-04-01T04:35:30.209Z,10.84
2023-04-01T04:37:59.521Z,10.80
2023-04-01T04:40:28.381Z,10.82
2023-04-01T04:42:57.623Z,10.83
2023-04-01T04:45:27.926Z,10.87
2023-04-01T04:47:59.116Z,10.88
2023-04-01T04:50:28.365Z,10.84
2023-04-01T04:52:57.737Z,10.82
2023-04-01T04:55:26.555Z,10.80
2023-04-01T04:58:16.143Z,10.74
2023-04-01T05:00:48.658Z,10.76
2023-04-01T05:03:28.926Z,10.74
2023-04-01T05:05:57.914Z,10.73
2023-04-01T05:08:27.054Z,10.67
2023-04-01T05:10:55.938Z,10.70
2023-04-01T05:13:25.007Z,10.68
2023-04-01T05:15:57.499Z,10.70
2023-04-01T05:18:26.740Z,10.74
2023-04-01T05:20:57.422Z,10.86
2023-04-01T05:23:26.603Z,10.89
2023-04-01T05:25:55.455Z,10.96
2023-04-01T05:28:24.996Z,11.03
2023-04-01T05:30:56.016Z,11.04
2023-04-01T05:33:27.920Z,11.02
2023-04-01T05:35:57.129Z,11.02
2023-04-01T05:38:26.294Z,10.94
2023-04-01T05:41:01.670Z,10.97
2023-04-01T05:43:31.867Z,11.00
2023-04-01T05:46:09.104Z,11.02
2023-04-01T05:48:43.890Z,10.96
2023-04-01T05:51:15.743Z,10.97
2023-04-01T05:53:45.208Z,10.94
2023-04-01T05:56:15.264Z,10.93
2023-04-01T05:58:55.234Z,11.03
2023-04-01T06:01:27.325Z,11.12
2023-04-01T06:03:56.714Z,11.09
2023-04-01T06:06:30.892Z,11.16
2023-04-01T06:09:17.258Z,11.19
2023-04-01T06:12:34.861Z,11.30
2023-04-01T06:15:22.538Z,11.35
2023-04-01T06:18:37.645Z,11.40
2023-04-01T06:21:31.996Z,11.38
2023-04-01T06:24:30.630Z,11.43
2023-04-01T06:27:14.736Z,11.46
2023-04-01T06:30:04.636Z,11.49
2023-04-01T06:33:02.897Z,11.47
2023-04-01T06:35:55.447Z,11.47
2023-04-01T06:39:17.602Z,11.47
2023-04-01T06:42:22.185Z,11.44
2023-04-01T06:45:07.426Z,11.46
2023-04-01T06:48:22.224Z,11.45
2023-04-01T06:51:26.756Z,11.49
2023-04-01T06:54:20.817Z,11.55
2023-04-01T06:57:26.141Z,11.45
2023-04-01T06:59:59.623Z,11.49
2023-04-01T07:02:41.334Z,11.51
2023-04-01T07:05:16.032Z,11.50
2023-04-01T07:07:50.408Z,11.46
2023-04-01T07:10:29.081Z,11.44
2023-04-01T07:13:29.818Z,11.44
2023-04-01T07:16:14.767Z,11.38
2023-04-01T07:18:52.134Z,11.36
2023-04-01T07:21:35.832Z,11.36
2023-04-01T07:24:21.128Z,11.32
2023-04-01T07:26:59.959Z,11.37
2023-04-01T07:29:33.713Z,11.55
2023-04-01T07:32:33.740Z,11.60
2023-04-01T07:35:24.950Z,11.66
2023-04-01T07:38:17.077Z,11.71
2023-04-01T07:40:57.723Z,11.77
2023-04-01T07:43:52.368Z,11.84
2023-04-01T07:46:55.220Z,11.83
2023-04-01T07:49:40.648Z,11.80
2023-04-01T07:52:21.237Z,11.74
2023-04-01T07:55:07.499Z,11.71
2023-04-01T07:57:46.268Z,11.75
2023-04-01T08:00:24.796Z,11.72
2023-04-01T08:03:36.049Z,11.76
2023-04-01T08:06:19.073Z,11.84
2023-04-01T08:09:02.164Z,11.95
2023-04-01T08:11:59.224Z,11.91
2023-04-01T08:15:04.169Z,11.98
2023-04-01T08:18:10.452Z,11.96
2023-04-01T08:20:49.475Z,12.01
2023-04-01T08:23:23.468Z,11.92
2023-04-01T08:26:01.198Z,11.84
2023-04-01T08:28:43.554Z,11.85
2023-04-01T08:31:21.100Z,11.86
2023-04-01T08:33:55.100Z,11.81
2023-04-01T08:36:33.738Z,11.75
2023-04-01T08:39:23.921Z,11.64
2023-04-01T08:42:34.098Z,11.59
2023-04-01T08:45:28.341Z,11.69
2023-04-01T08:48:59.561Z,11.64
2023-04-01T08:52:22.591Z,11.74
2023-04-01T08:55:29.922Z,11.83
2023-04-01T08:59:08.299Z,11.73
2023-04-01T09:02:42.457Z,11.76
2023-04-01T09:06:07.285Z,11.77
2023-04-01T09:09:02.534Z,11.72
2023-04-01T09:11:58.922Z,11.85
2023-04-01T09:15:10.170Z,11.81
2023-04-01T09:18:20.342Z,11.71
2023-04-01T09:21:21.826Z,11.68
2023-04-01T09:24:41.174Z,11.58
2023-04-01T09:27:27.859Z,11.53
2023-04-01T09:30:44.557Z,11.51
2023-04-01T09:34:18.964Z,11.47
2023-04-01T09:37:22.950Z,11.49
2023-04-01T09:40:19.861Z,11.56
2023-04-01T09:43:24.989Z,11.49
2023-04-01T09:46:20.389Z,11.48
2023-04-01T09:49:33.609Z,11.60
2023-04-01T09:52:26.202Z,11.72
2023-04-01T09:55:19.044Z,11.73
2023-04-01T09:58:43.888Z,11.78
2023-04-01T10:02:28.464Z,11.77
2023-04-01T10:05:44.668Z,11.65
2023-04-01T10:09:19.459Z,11.73
2023-04-01T10:12:36.729Z,11.80
2023-04-01T10:15:39.232Z,11.91
2023-04-01T10:19:02.372Z,11.94
2023-04-01T10:22:26.602Z,11.93
2023-04-01T10:25:35.427Z,11.92
2023-04-01T10:28:53.619Z,11.83
2023-04-01T10:32:59.078Z,11.81
2023-04-01T10:36:26.615Z,11.84
2023-04-01T10:39:47.105Z,11.82
2023-04-01T10:43:29.822Z,11.86
2023-04-01T10:47:13.472Z,11.96
2023-04-01T10:50:24.895Z,12.13
2023-04-01T10:53:40.671Z,12.23
2023-04-01T10:56:41.985Z,12.29
2023-04-01T11:00:27.380Z,12.40
2023-04-01T11:03:55.979Z,12.49
2023-04-01T11:08:06.757Z,12.48
2023-04-01T11:11:28.909Z,12.57
2023-04-01T11:14:45.789Z,12.70
2023-04-01T11:17:59.516Z,12.79
2023-04-01T11:21:09.701Z,12.76
2023-04-01T11:24:05.094Z,12.68
2023-04-01T11:26:59.481Z,12.56
2023-04-01T11:30:14.748Z,12.47
2023-04-01T11:33:00.249Z,12.51
2023-04-01T11:36:08.922Z,12.63
2023-04-01T11:39:21.745Z,12.66
2023-04-01T11:42:30.889Z,12.55
2023-04-01T11:45:38.728Z,12.63
2023-04-01T11:48:38.374Z,12.60
2023-04-01T11:51:38.907Z,12.56
2023-04-01T11:54:29.927Z,12.45
2023-04-01T11:57:37.755Z,12.30
2023-04-01T12:00:35.284Z,12.23
2023-04-01T12:03:32.031Z,12.29
2023-04-01T12:06:10.951Z,12.39
2023-04-01T12:08:55.770Z,12.38
2023-04-01T12:11:37.251Z,12.39
2023-04-01T12:14:20.248Z,12.47
2023-04-01T12:17:11.866Z,12.55
2023-04-01T12:19:53.825Z,12.60
2023-04-01T12:22:51.811Z,12.78
2023-04-01T12:25:51.242Z,12.94
2023-04-01T12:28:32.851Z,13.14
2023-04-01T12:31:25.049Z,13.43
2023-04-01T12:34:31.823Z,13.75
2023-04-01T12:37:15.823Z,14.06
2023-04-01T12:40:04.415Z,14.25
2023-04-01T12:42:59.256Z,14.22
2023-04-01T12:45:34.712Z,14.31
2023-04-01T12:48:33.919Z,14.26
2023-04-01T12:51:39.955Z,14.29
2023-04-01T12:54:54.357Z,14.46
2023-04-01T12:58:08.329Z,14.53
2023-04-01T13:01:09.440Z,14.62
2023-04-01T13:04:08.086Z,14.56
2023-04-01T13:07:20.048Z,14.38
2023-04-01T13:10:03.592Z,14.44
2023-04-01T13:12:58.384Z,14.39
2023-04-01T13:15:37.756Z,14.37
2023-04-01T13:18:24.151Z,14.46
2023-04-01T13:21:07.764Z,14.40
2023-04-01T13:23:58.130Z,14.31
2023-04-01T13:26:39.635Z,14.08
2023-04-01T13:29:18.955Z,13.92
2023-04-01T13:32:08.148Z,13.61
2023-04-01T13:35:01.965Z,13.35
2023-04-01T13:37:51.940Z,13.17
2023-04-01T13:40:42.753Z,13.06
2023-04-01T13:43:24.564Z,13.17
2023-04-01T13:46:19.640Z,13.25
2023-04-01T13:49:30.956Z,13.40
2023-04-01T13:52:33.338Z,13.60
2023-04-01T13:55:43.083Z,13.65
2023-04-01T13:58:48.263Z,13.56
2023-04-01T14:01:28.800Z,13.52
2023-04-01T14:04:50.403Z,13.32
2023-04-01T14:07:49.610Z,13.06
2023-04-01T14:10:30.188Z,12.85
2023-04-01T14:13:09.854Z,12.68
2023-04-01T14:16:28.108Z,12.45
2023-04-01T14:19:17.602Z,12.26
2023-04-01T14:21:54.402Z,12.21
2023-04-01T14:24:52.758Z,12.00
2023-04-01T14:27:44.245Z,12.02
2023-04-01T14:30:53.965Z,11.96
2023-04-01T14:33:40.489Z,12.01
2023-04-01T14:36:38.393Z,12.01
2023-04-01T14:39:36.294Z,12.16
2023-04-01T14:42:26.101Z,12.18
2023-04-01T14:45:38.737Z,12.17
2023-04-01T14:48:25.971Z,12.18
2023-04-01T14:51:05.190Z,12.03
2023-04-01T14:53:42.787Z,12.01
2023-04-01T14:56:11.815Z,11.86
2023-04-01T14:58:47.843Z,11.80
2023-04-01T15:01:43.444Z,11.86
2023-04-01T15:04:51.643Z,11.79
2023-04-01T15:07:52.555Z,11.71
2023-04-01T15:10:49.357Z,11.65
2023-04-01T15:13:38.555Z,11.68
2023-04-01T15:16:25.236Z,11.68
2023-04-01T15:19:14.937Z,11.64
2023-04-01T15:22:21.281Z,11.63
2023-04-01T15:25:08.704Z,11.57
2023-04-01T15:27:47.208Z,11.60
2023-04-01T15:30:36.317Z,11.68
2023-04-01T15:33:53.246Z,11.60
2023-04-01T15:36:41.438Z,11.54
2023-04-01T15:39:19.540Z,11.52
2023-04-01T15:42:14.991Z,11.54
2023-04-01T15:45:09.139Z,11.53
2023-04-01T15:47:44.466Z,11.55
2023-04-01T15:51:01.011Z,11.65
2023-04-01T15:54:40.316Z,11.58
2023-04-01T15:57:27.842Z,11.62
2023-04-01T16:00:23.379Z,11.56
2023-04-01T16:03:11.874Z,11.52
2023-04-01T16:05:57.722Z,11.53
2023-04-01T16:09:02.278Z,11.49
2023-04-01T16:11:46.111Z,11.48
2023-04-01T16:14:33.918Z,11.47
2023-04-01T16:17:24.481Z,11.49
2023-04-01T16:19:58.126Z,11.52
2023-04-01T16:22:36.296Z,11.54
2023-04-01T16:25:30.253Z,11.50
2023-04-01T16:28:21.722Z,11.44
2023-04-01T16:31:01.963Z,11.38
2023-04-01T16:33:47.891Z,11.46
2023-04-01T16:36:30.545Z,11.39
2023-04-01T16:39:24.615Z,11.37
2023-04-01T16:42:19.081Z,11.41
2023-04-01T16:44:57.915Z,11.35
2023-04-01T16:47:34.289Z,11.34
2023-04-01T16:50:17.482Z,11.28
2023-04-01T16:53:02.737Z,11.30
2023-04-01T16:55:51.013Z,11.32
2023-04-01T16:58:29.505Z,11.34
2023-04-01T17:01:07.994Z,11.38
2023-04-01T17:03:44.644Z,11.30
2023-04-01T17:06:32.021Z,11.23
2023-04-01T17:09:35.454Z,11.31
2023-04-01T17:12:16.599Z,11.24
2023-04-01T17:14:56.730Z,11.19
2023-04-01T17:17:47.856Z,11.28
2023-04-01T17:20:41.753Z,11.15
2023-04-01T17:23:23.462Z,11.18
2023-04-01T17:26:22.895Z,11.21
2023-04-01T17:28:59.494Z,11.18
2023-04-01T17:31:48.742Z,11.17
2023-04-01T17:34:56.006Z,11.14
2023-04-01T17:37:43.864Z,11.02
2023-04-01T17:40:34.125Z,10.90
2023-04-01T17:43:18.778Z,10.92
2023-04-01T17:45:56.539Z,10.96
2023-04-01T17:48:43.951Z,10.86
2023-04-01T17:51:33.245Z,10.83
2023-04-01T17:54:23.438Z,10.79
2023-04-01T17:57:16.528Z,10.81
2023-04-01T18:00:02.469Z,10.85
2023-04-01T18:02:54.476Z,10.75
2023-04-01T18:06:02.554Z,10.67
2023-04-01T18:09:01.932Z,10.70
2023-04-01T18:11:46.667Z,10.63
2023-04-01T18:14:45.120Z,10.55
2023-04-01T18:17:27.744Z,10.57
2023-04-01T18:20:32.488Z,10.54
2023-04-01T18:23:12.385Z,10.49
2023-04-01T18:25:49.146Z,10.42
2023-04-01T18:28:28.635Z,10.39
2023-04-01T18:31:06.933Z,10.44
2023-04-01T18:33:50.213Z,10.48
2023-04-01T18:36:28.723Z,10.40
2023-04-01T18:39:06.869Z,10.42
2023-04-01T18:41:50.915Z,10.42
2023-04-01T18:44:38.931Z,10.42
2023-04-01T18:47:27.706Z,10.37
2023-04-01T18:50:04.054Z,10.44
2023-04-01T18:52:39.898Z,10.34
2023-04-01T18:55:39.555Z,10.35
2023-04-01T18:58:25.072Z,10.28
2023-04-01T19:01:15.134Z,10.35
2023-04-01T19:03:58.868Z,10.25
2023-04-01T19:06:35.738Z,10.33
2023-04-01T19:09:28.198Z,10.15
2023-04-01T19:12:40.337Z,10.15
2023-04-01T19:15:29.671Z,10.08
2023-04-01T19:18:28.864Z,10.16
2023-04-01T19:21:07.531Z,10.13
2023-04-01T19:24:08.531Z,10.10
2023-04-01T19:26:46.261Z,10.07
2023-04-01T19:29:36.266Z,10.00
2023-04-01T19:32:21.049Z,10.08
2023-04-01T19:35:05.704Z,10.07
2023-04-01T19:37:41.486Z,10.02
2023-04-01T19:40:50.505Z,9.99
2023-04-01T19:43:49.893Z,9.90
2023-04-01T19:46:32.307Z,9.85
2023-04-01T19:49:43.219Z,9.80
2023-04-01T19:52:20.349Z,9.89
2023-04-01T19:54:59.529Z,9.86
2023-04-01T19:57:48.197Z,9.89
2023-04-01T20:00:28.506Z,10.00
2023-04-01T20:03:20.834Z,9.96
2023-04-01T20:06:09.088Z,9.87
2023-04-01T20:08:47.731Z,9.89
2023-04-01T20:11:32.853Z,9.92
2023-04-01T20:14:17.997Z,9.91
2023-04-01T20:17:01.361Z,9.78
2023-04-01T20:19:41.229Z,9.83
2023-04-01T20:22:31.844Z,9.85
2023-04-01T20:25:08.882Z,9.97
2023-04-01T20:27:47.610Z,9.89
2023-04-01T20:30:47.479Z,9.85
2023-04-01T20:33:55.970Z,9.73
2023-04-01T20:36:37.193Z,9.56
2023-04-01T20:39:42.093Z,9.67
2023-04-01T20:42:36.407Z,9.63
2023-04-01T20:45:33.614Z,9.54
2023-04-01T20:49:07.222Z,9.56
2023-04-01T20:51:41.830Z,9.61
2023-04-01T20:54:35.773Z,9.47
2023-04-01T20:57:13.692Z,9.49
2023-04-01T21:00:18.247Z,9.56
2023-04-01T21:03:08.246Z,9.46
2023-04-01T21:06:12.497Z,9.39
2023-04-01T21:09:11.259Z,9.38
2023-04-01T21:11:53.843Z,9.36
2023-04-01T21:14:53.783Z,9.33
2023-04-01T21:17:41.652Z,9.27
2023-04-01T21:20:49.177Z,9.32
2023-04-01T21:23:59.290Z,9.34
2023-04-01T21:26:48.255Z,9.30
2023-04-01T21:29:55.348Z,9.34
2023-04-01T21:32:48.734Z,9.26
2023-04-01T21:35:33.574Z,9.23
2023-04-01T21:38:32.128Z,9.27
2023-04-01T21:41:34.012Z,9.25
2023-04-01T21:44:50.887Z,9.25
2023-04-01T21:48:21.175Z,9.21
2023-04-01T21:51:43.647Z,9.20
2023-04-01T21:55:24.064Z,9.15
2023-04-01T21:59:14.799Z,9.15
2023-04-01T22:02:16.649Z,9.11
2023-04-01T22:05:00.170Z,9.15
2023-04-01T22:07:39.688Z,9.11
2023-04-01T22:10:28.351Z,9.22
2023-04-01T22:13:09.345Z,9.11
2023-04-01T22:16:03.131Z,9.16
2023-04-01T22:18:38.185Z,9.20
2023-04-01T22:21:22.214Z,9.18
2023-04-01T22:24:02.593Z,9.14
2023-04-01T22:26:40.115Z,9.15
2023-04-01T22:29:19.471Z,9.21
2023-04-01T22:31:56.165Z,9.22
2023-04-01T22:34:39.895Z,9.13
2023-04-01T22:37:19.141Z,9.17
2023-04-01T22:40:12.932Z,9.10
2023-04-01T22:42:46.705Z,9.14
2023-04-01T22:45:55.604Z,9.04
